Time;durP1;ratioP1;P1;durP2;ratioP2;P2;SDS_P1;SDS_P2;PMS_P1;PMS_P2;Temp;Humidity;BMP_temperature;BMP_pressure;BME280_temperature;BME280_humidity;BME280_pressure;Samples;Min_cycle;Max_cycle;Signal;HPM_P1;HPM_P2
2023/07/24 00:00:14;;;;;;;13.73;7.13;;;21.20;65.10;;;;;;5054718;28;20267;-75
2023/07/24 00:02:40;;;;;;;13.87;6.83;;;21.30;65.60;;;;;;5062600;28;20199;-73
2023/07/24 00:05:05;;;;;;;12.43;6.80;;;21.40;65.70;;;;;;5060281;28;20793;-74
2023/07/24 00:07:31;;;;;;;15.77;7.73;;;21.40;65.70;;;;;;5058912;28;20191;-76
2023/07/24 00:09:57;;;;;;;13.83;6.80;;;21.40;65.80;;;;;;5060243;28;20986;-76
2023/07/24 00:12:22;;;;;;;19.37;9.10;;;20.90;66.30;;;;;;5060296;28;20237;-76
2023/07/24 00:14:48;;;;;;;14.30;7.70;;;20.70;67.50;;;;;;5063050;28;20240;-76
2023/07/24 00:17:14;;;;;;;17.57;8.00;;;20.70;67.70;;;;;;5069396;28;20636;-76
2023/07/24 00:19:39;;;;;;;15.80;8.30;;;20.90;67.90;;;;;;5063898;28;20194;-74
2023/07/24 00:22:05;;;;;;;15.40;7.63;;;20.90;67.70;;;;;;5060093;28;20608;-77
2023/07/24 00:24:31;;;;;;;16.60;8.10;;;20.80;67.90;;;;;;5059900;28;20286;-76
2023/07/24 00:26:57;;;;;;;15.93;7.70;;;20.90;68.80;;;;;;5057181;28;20607;-75
2023/07/24 00:29:23;;;;;;;15.63;7.60;;;20.90;68.90;;;;;;5056789;28;20490;-76
2023/07/24 00:31:49;;;;;;;13.03;7.00;;;20.70;69.10;;;;;;5057522;28;20724;-75
2023/07/24 00:34:14;;;;;;;17.23;8.10;;;20.70;69.50;;;;;;5061671;28;20190;-74
2023/07/24 00:36:40;;;;;;;16.23;7.83;;;20.70;69.10;;;;;;5068622;28;20189;-74
2023/07/24 00:39:06;;;;;;;12.80;7.27;;;20.70;69.70;;;;;;5061314;28;20276;-74
2023/07/24 00:41:32;;;;;;;18.60;7.87;;;20.50;69.70;;;;;;5060567;28;20225;-76
2023/07/24 00:43:57;;;;;;;14.30;7.63;;;20.50;70.10;;;;;;5057082;28;20583;-74
2023/07/24 00:46:24;;;;;;;22.73;8.57;;;20.40;71.80;;;;;;5058686;28;20223;-76
2023/07/24 00:48:50;;;;;;;16.80;7.53;;;20.00;71.40;;;;;;5060328;28;20196;-74
2023/07/24 00:51:16;;;;;;;16.00;7.00;;;19.80;72.30;;;;;;5037065;28;20487;-75
2023/07/24 00:53:43;;;;;;;15.20;7.13;;;19.90;72.40;;;;;;5052940;28;20427;-75
2023/07/24 00:56:09;;;;;;;15.03;7.50;;;19.90;71.60;;;;;;5064385;28;20476;-74
2023/07/24 00:58:38;;;;;;;12.40;6.90;;;19.80;71.40;;;;;;5062999;28;20461;-77
2023/07/24 01:01:04;;;;;;;18.83;8.33;;;19.80;72.10;;;;;;5040870;28;20816;-75
2023/07/24 01:03:34;;;;;;;16.37;7.50;;;19.70;72.70;;;;;;5066800;28;20434;-76
2023/07/24 01:06:03;;;;;;;16.70;7.40;;;19.50;73.90;;;;;;5052324;28;20458;-75
2023/07/24 01:08:29;;;;;;;13.60;7.60;;;19.40;74.50;;;;;;5061100;28;20519;-76
2023/07/24 01:10:59;;;;;;;15.93;7.57;;;19.30;74.50;;;;;;5055705;28;21118;-77
2023/07/24 01:13:28;;;;;;;12.80;6.73;;;19.20;74.60;;;;;;5059326;28;20194;-76
2023/07/24 01:16:04;;;;;;;10.93;6.37;;;19.10;75.10;;;;;;5062867;28;20834;-75
2023/07/24 01:18:30;;;;;;;16.07;7.37;;;19.00;75.80;;;;;;5056722;28;20433;-76
2023/07/24 01:20:58;;;;;;;13.93;7.07;;;19.00;75.80;;;;;;5054074;28;20536;-76
2023/07/24 01:23:30;;;;;;;16.63;7.07;;;19.00;75.90;;;;;;5061413;28;20457;-76
2023/07/24 01:26:00;;;;;;;14.40;7.20;;;19.00;76.40;;;;;;5056531;28;20454;-75
2023/07/24 01:28:26;;;;;;;15.57;8.00;;;19.00;77.00;;;;;;5057519;28;20414;-73
2023/07/24 01:30:53;;;;;;;14.37;7.40;;;19.00;77.10;;;;;;5058537;28;20493;-75
2023/07/24 01:33:19;;;;;;;12.90;6.73;;;19.00;77.30;;;;;;5063575;28;20655;-73
2023/07/24 01:35:44;;;;;;;15.20;7.17;;;19.00;77.30;;;;;;5064336;28;20530;-74
2023/07/24 01:38:14;;;;;;;12.33;6.50;;;19.00;77.10;;;;;;5060487;28;20457;-74
2023/07/24 01:40:43;;;;;;;15.07;7.23;;;19.00;76.50;;;;;;5055659;28;20206;-75
2023/07/24 01:43:09;;;;;;;12.30;6.70;;;19.00;76.20;;;;;;5057099;28;20471;-76
2023/07/24 01:45:35;;;;;;;13.00;6.93;;;19.00;75.70;;;;;;5066132;28;20793;-74
2023/07/24 01:48:04;;;;;;;13.80;7.03;;;19.00;75.90;;;;;;5060920;28;20437;-74
2023/07/24 01:50:29;;;;;;;15.30;7.00;;;19.00;76.40;;;;;;5057554;28;20492;-74
2023/07/24 01:52:55;;;;;;;15.13;7.20;;;19.00;76.50;;;;;;5058148;28;20421;-74
2023/07/24 01:55:20;;;;;;;18.73;8.43;;;19.00;76.50;;;;;;5055707;28;20248;-75
2023/07/24 01:57:46;;;;;;;14.67;7.70;;;19.00;76.50;;;;;;5057175;28;20193;-73
2023/07/24 02:00:12;;;;;;;15.90;7.50;;;19.00;76.40;;;;;;5054679;28;20557;-76
2023/07/24 02:02:37;;;;;;;15.90;7.80;;;19.10;75.90;;;;;;5060631;28;20189;-74
2023/07/24 02:05:03;;;;;;;14.57;7.53;;;19.00;75.80;;;;;;5064739;28;20288;-75
2023/07/24 02:07:29;;;;;;;12.97;7.03;;;19.00;75.90;;;;;;5066373;28;20193;-74
2023/07/24 02:09:54;;;;;;;14.30;7.90;;;19.00;74.90;;;;;;5064241;28;20571;-73
2023/07/24 02:12:20;;;;;;;14.83;7.60;;;19.10;74.30;;;;;;5059422;28;20239;-74
2023/07/24 02:14:49;;;;;;;14.47;7.43;;;19.20;73.60;;;;;;5063306;28;20258;-75
2023/07/24 02:17:15;;;;;;;14.27;6.97;;;19.30;72.90;;;;;;5060298;28;20204;-76
2023/07/24 02:19:41;;;;;;;16.10;8.00;;;19.40;72.40;;;;;;5056841;28;20438;-76
2023/07/24 02:22:06;;;;;;;13.27;7.70;;;19.40;71.80;;;;;;5052290;28;21090;-75
2023/07/24 02:24:32;;;;;;;13.73;7.00;;;19.40;71.70;;;;;;5059935;28;20257;-75
2023/07/24 02:26:57;;;;;;;16.40;6.87;;;19.50;71.30;;;;;;5066722;28;20196;-75
2023/07/24 02:29:23;;;;;;;13.30;6.80;;;19.50;70.50;;;;;;5055940;28;20201;-74
2023/07/24 02:31:50;;;;;;;17.37;8.40;;;19.60;70.50;;;;;;5064140;28;20318;-74
2023/07/24 02:34:15;;;;;;;13.93;7.40;;;19.60;71.30;;;;;;5062723;28;20188;-75
2023/07/24 02:36:41;;;;;;;16.10;7.47;;;19.60;70.40;;;;;;5059776;28;20444;-73
2023/07/24 02:39:07;;;;;;;13.07;6.97;;;19.50;70.70;;;;;;5056792;28;20188;-74
2023/07/24 02:41:32;;;;;;;15.67;6.43;;;19.60;70.40;;;;;;5059145;28;20211;-75
2023/07/24 02:43:58;;;;;;;14.03;7.57;;;19.50;70.20;;;;;;5058526;28;20445;-75
2023/07/24 02:46:24;;;;;;;18.10;8.07;;;19.50;70.50;;;;;;5053330;28;20193;-73
2023/07/24 02:48:51;;;;;;;13.53;7.10;;;19.40;70.40;;;;;;5052811;28;20189;-74
2023/07/24 02:51:16;;;;;;;20.93;8.13;;;19.40;70.20;;;;;;5065175;28;20811;-74
2023/07/24 02:53:42;;;;;;;16.50;7.70;;;19.40;70.20;;;;;;5059435;28;20467;-74
2023/07/24 02:56:08;;;;;;;17.17;8.10;;;19.40;70.20;;;;;;5057481;28;20248;-74
2023/07/24 02:58:33;;;;;;;16.97;8.17;;;19.40;70.40;;;;;;5064920;28;20196;-73
2023/07/24 03:01:06;;;;;;;15.73;7.60;;;19.40;70.70;;;;;;5056419;28;20208;-73
2023/07/24 03:03:33;;;;;;;14.17;7.10;;;19.40;70.70;;;;;;5060072;28;20719;-74
2023/07/24 03:05:59;;;;;;;14.27;6.90;;;19.40;71.00;;;;;;5064003;28;20425;-74
2023/07/24 03:08:24;;;;;;;12.57;7.10;;;19.40;70.70;;;;;;5058526;28;20433;-73
2023/07/24 03:10:50;;;;;;;16.30;7.57;;;19.40;70.40;;;;;;5058325;28;20231;-73
2023/07/24 03:13:16;;;;;;;15.00;7.73;;;19.40;70.10;;;;;;5055791;28;20220;-73
2023/07/24 03:15:42;;;;;;;13.33;6.77;;;19.30;70.10;;;;;;5060229;28;20265;-74
2023/07/24 03:18:08;;;;;;;13.63;7.33;;;19.30;70.10;;;;;;5056657;28;20433;-74
2023/07/24 03:20:33;;;;;;;15.93;7.67;;;19.20;70.20;;;;;;5060753;28;20235;-73
2023/07/24 03:22:59;;;;;;;16.70;7.77;;;19.20;70.10;;;;;;5061492;28;20205;-74
2023/07/24 03:25:25;;;;;;;13.47;7.40;;;19.20;70.20;;;;;;5055325;28;20243;-75
2023/07/24 03:27:50;;;;;;;15.23;7.40;;;19.20;70.20;;;;;;5063173;28;20245;-73
2023/07/24 03:30:16;;;;;;;14.00;7.67;;;19.10;70.70;;;;;;5056522;28;20261;-74
2023/07/24 03:32:41;;;;;;;16.93;7.77;;;19.10;70.80;;;;;;5056374;28;20187;-73
2023/07/24 03:35:07;;;;;;;18.77;8.03;;;19.00;70.50;;;;;;5068315;28;20196;-73
2023/07/24 03:37:35;;;;;;;13.60;7.30;;;19.00;70.80;;;;;;5062519;28;20669;-74
2023/07/24 03:40:00;;;;;;;13.73;7.10;;;19.10;70.50;;;;;;5052854;28;20474;-72
2023/07/24 03:42:27;;;;;;;16.03;6.23;;;19.10;70.20;;;;;;5051513;28;20437;-72
2023/07/24 03:44:53;;;;;;;17.90;7.87;;;19.10;70.20;;;;;;5059257;28;20650;-74
2023/07/24 03:47:18;;;;;;;12.10;6.63;;;19.10;70.40;;;;;;5063156;28;20445;-75
2023/07/24 03:49:44;;;;;;;12.40;6.47;;;19.10;69.90;;;;;;5054103;28;20430;-74
2023/07/24 03:52:09;;;;;;;12.87;6.70;;;19.00;69.70;;;;;;5064855;28;20218;-73
2023/07/24 03:54:35;;;;;;;11.47;7.10;;;19.10;70.50;;;;;;5058770;28;20644;-74
2023/07/24 03:57:00;;;;;;;16.57;7.90;;;19.10;70.80;;;;;;5057429;28;20186;-74
2023/07/24 03:59:26;;;;;;;12.90;7.20;;;19.20;70.70;;;;;;5061125;28;20245;-75
2023/07/24 04:01:51;;;;;;;16.00;7.60;;;19.30;69.80;;;;;;5061234;28;20212;-74
2023/07/24 04:04:17;;;;;;;14.53;7.07;;;19.30;68.90;;;;;;5061947;28;20256;-75
2023/07/24 04:06:43;;;;;;;16.27;7.30;;;19.30;68.30;;;;;;5061410;28;20191;-73
2023/07/24 04:09:08;;;;;;;13.27;7.23;;;19.40;68.30;;;;;;5066101;28;20207;-74
2023/07/24 04:11:34;;;;;;;13.67;7.10;;;19.40;68.30;;;;;;5078472;28;20244;-73
2023/07/24 04:13:59;;;;;;;11.80;6.73;;;19.40;68.50;;;;;;5075764;28;20184;-73
2023/07/24 04:16:26;;;;;;;14.40;6.87;;;19.40;68.20;;;;;;5070261;28;20191;-73
2023/07/24 04:18:51;;;;;;;14.33;6.80;;;19.40;68.20;;;;;;5071555;28;20179;-72
2023/07/24 04:21:17;;;;;;;15.07;6.83;;;19.40;68.20;;;;;;5066940;28;21461;-74
2023/07/24 04:23:42;;;;;;;16.37;7.70;;;19.40;68.00;;;;;;5057994;28;20249;-75
2023/07/24 04:26:08;;;;;;;11.93;6.97;;;19.40;68.20;;;;;;5062167;28;20388;-74
2023/07/24 04:28:33;;;;;;;19.27;8.80;;;19.50;67.70;;;;;;5055172;28;20192;-73
2023/07/24 04:31:01;;;;;;;13.63;7.13;;;19.50;67.70;;;;;;5056623;28;20216;-73
2023/07/24 04:33:27;;;;;;;13.30;7.90;;;19.60;67.70;;;;;;5051728;28;20719;-74
2023/07/24 04:35:54;;;;;;;13.63;6.73;;;19.70;67.20;;;;;;5065975;28;20468;-74
2023/07/24 04:38:19;;;;;;;15.80;7.57;;;19.80;67.00;;;;;;5062840;28;20437;-74
2023/07/24 04:40:45;;;;;;;16.53;7.20;;;19.90;67.00;;;;;;5052844;28;20466;-74
2023/07/24 04:43:11;;;;;;;14.80;7.50;;;19.90;67.20;;;;;;5054276;28;20187;-75
2023/07/24 04:45:36;;;;;;;16.83;7.43;;;19.90;66.90;;;;;;5055456;28;20192;-74
2023/07/24 04:48:02;;;;;;;13.40;7.00;;;20.00;66.60;;;;;;5066922;28;20623;-74
2023/07/24 04:50:27;;;;;;;11.77;7.13;;;20.10;66.30;;;;;;5053098;28;20289;-73
2023/07/24 04:52:53;;;;;;;26.07;7.10;;;20.00;66.40;;;;;;5058418;28;20209;-73
2023/07/24 04:55:18;;;;;;;15.90;7.50;;;20.00;66.60;;;;;;5056672;28;20189;-73
2023/07/24 04:57:44;;;;;;;12.40;6.20;;;20.00;66.70;;;;;;5061011;28;20198;-73
2023/07/24 05:00:10;;;;;;;13.20;6.73;;;20.00;66.40;;;;;;5049945;28;20968;-74
2023/07/24 05:02:36;;;;;;;14.10;7.80;;;20.00;66.40;;;;;;5056215;28;20662;-74
2023/07/24 05:05:01;;;;;;;13.13;7.17;;;20.00;66.40;;;;;;5055077;28;20427;-74
2023/07/24 05:07:27;;;;;;;13.87;6.53;;;20.00;66.60;;;;;;5055158;28;20662;-74
2023/07/24 05:09:53;;;;;;;12.23;6.70;;;20.00;66.60;;;;;;5057291;28;20268;-74
2023/07/24 05:12:18;;;;;;;14.00;7.23;;;20.10;66.30;;;;;;5061959;28;20216;-73
2023/07/24 05:14:44;;;;;;;11.47;6.40;;;20.00;66.40;;;;;;5063187;28;20270;-72
2023/07/24 05:17:09;;;;;;;10.57;6.30;;;20.10;66.30;;;;;;5059878;28;20643;-73
2023/07/24 05:19:35;;;;;;;12.20;7.23;;;20.10;66.40;;;;;;5065775;28;20569;-72
2023/07/24 05:22:00;;;;;;;18.97;7.30;;;20.10;66.60;;;;;;5059606;28;20195;-72
2023/07/24 05:24:26;;;;;;;12.37;7.20;;;20.10;66.60;;;;;;5065101;28;20706;-73
2023/07/24 05:26:51;;;;;;;14.63;6.83;;;20.20;66.30;;;;;;5066103;28;20242;-73
2023/07/24 05:29:17;;;;;;;13.50;7.00;;;20.20;66.30;;;;;;5059129;28;20192;-74
2023/07/24 05:31:43;;;;;;;14.30;6.73;;;20.20;66.30;;;;;;5059770;28;20722;-71
2023/07/24 05:34:08;;;;;;;13.57;7.30;;;20.30;66.10;;;;;;5060457;28;20250;-71
2023/07/24 05:36:34;;;;;;;15.27;7.40;;;20.30;66.30;;;;;;5056969;28;20659;-71
2023/07/24 05:38:59;;;;;;;14.30;6.83;;;20.30;66.40;;;;;;5067831;28;20200;-72
2023/07/24 05:41:25;;;;;;;15.33;6.63;;;20.30;66.40;;;;;;5061862;28;20863;-70
2023/07/24 05:43:51;;;;;;;14.53;6.60;;;20.40;66.10;;;;;;5056081;28;20180;-72
2023/07/24 05:46:16;;;;;;;14.07;7.73;;;20.40;66.10;;;;;;5064618;28;20178;-72
2023/07/24 05:48:42;;;;;;;16.97;7.90;;;20.40;65.40;;;;;;5066460;28;20196;-72
2023/07/24 05:51:07;;;;;;;14.03;7.13;;;20.50;65.70;;;;;;5059721;28;20306;-72
2023/07/24 05:53:33;;;;;;;17.30;8.90;;;20.50;65.70;;;;;;5054460;28;20181;-70
2023/07/24 05:56:02;;;;;;;17.20;8.07;;;20.60;65.60;;;;;;5065122;28;20304;-71
2023/07/24 05:58:28;;;;;;;14.00;8.00;;;20.60;65.60;;;;;;5059113;28;20197;-72
2023/07/24 06:00:55;;;;;;;17.53;8.87;;;20.80;65.10;;;;;;5058749;28;20471;-72
2023/07/24 06:03:24;;;;;;;15.73;8.80;;;20.90;64.80;;;;;;5065630;28;20974;-71
2023/07/24 06:05:56;;;;;;;14.87;8.10;;;20.90;64.70;;;;;;5061423;28;20475;-72
2023/07/24 06:08:22;;;;;;;19.10;9.00;;;20.90;64.70;;;;;;5060102;28;20421;-72
2023/07/24 06:10:49;;;;;;;18.40;7.97;;;21.10;64.50;;;;;;5062649;28;20908;-72
2023/07/24 06:13:16;;;;;;;17.27;8.07;;;21.10;64.40;;;;;;5061161;28;20416;-73
2023/07/24 06:15:42;;;;;;;19.17;8.67;;;21.20;64.40;;;;;;5052047;28;21078;-74
2023/07/24 06:18:07;;;;;;;15.53;8.27;;;21.30;64.20;;;;;;5065225;28;20484;-72
2023/07/24 06:20:33;;;;;;;18.67;8.70;;;21.40;63.70;;;;;;5055841;28;20518;-73
2023/07/24 06:22:58;;;;;;;14.80;7.20;;;21.50;63.40;;;;;;5064228;28;20576;-73
2023/07/24 06:25:24;;;;;;;12.80;7.03;;;21.60;62.80;;;;;;5064165;28;20271;-73
2023/07/24 06:27:49;;;;;;;16.00;7.80;;;21.70;62.30;;;;;;5059941;28;20238;-74
2023/07/24 06:30:15;;;;;;;14.57;6.57;;;21.70;63.80;;;;;;5057688;28;20287;-73
2023/07/24 06:32:41;;;;;;;15.10;7.37;;;21.70;63.80;;;;;;5061199;28;20567;-73
2023/07/24 06:35:06;;;;;;;13.90;8.00;;;21.70;63.80;;;;;;5058941;28;20199;-74
2023/07/24 06:37:32;;;;;;;15.13;7.80;;;21.80;63.90;;;;;;5064919;28;20198;-75
2023/07/24 06:39:58;;;;;;;17.13;8.40;;;21.70;64.10;;;;;;5057717;28;20214;-73
2023/07/24 06:42:23;;;;;;;16.80;8.23;;;21.80;63.90;;;;;;5060891;28;20588;-74
2023/07/24 06:44:49;;;;;;;15.80;7.47;;;21.80;64.20;;;;;;5059465;28;20202;-74
2023/07/24 06:47:14;;;;;;;16.67;7.43;;;21.90;64.20;;;;;;5064936;28;20202;-73
2023/07/24 06:49:40;;;;;;;12.97;6.83;;;21.90;64.10;;;;;;5057523;28;20573;-73
2023/07/24 06:52:06;;;;;;;18.17;8.30;;;21.80;64.50;;;;;;5057583;28;20223;-74
2023/07/24 06:54:32;;;;;;;16.20;7.27;;;21.80;64.50;;;;;;5058673;28;20195;-74
2023/07/24 06:56:57;;;;;;;17.50;7.83;;;21.80;64.70;;;;;;5058575;28;20447;-74
2023/07/24 06:59:23;;;;;;;17.20;7.80;;;21.90;64.80;;;;;;5058134;28;20199;-74
2023/07/24 07:01:49;;;;;;;16.50;7.80;;;21.90;64.80;;;;;;5056150;28;20636;-74
2023/07/24 07:04:14;;;;;;;14.77;8.13;;;21.90;65.00;;;;;;5053024;28;20192;-74
2023/07/24 07:06:40;;;;;;;13.43;7.97;;;21.90;65.00;;;;;;5065459;28;20326;-74
2023/07/24 07:09:06;;;;;;;14.17;8.13;;;22.00;65.10;;;;;;5064182;28;20218;-75
2023/07/24 07:11:32;;;;;;;19.37;9.23;;;22.10;64.70;;;;;;5065188;28;20227;-76
2023/07/24 07:13:57;;;;;;;16.33;7.67;;;22.20;64.70;;;;;;5061467;28;20438;-72
2023/07/24 07:16:23;;;;;;;18.40;8.57;;;22.20;64.50;;;;;;5067746;28;20226;-75
2023/07/24 07:18:49;;;;;;;16.77;8.13;;;22.20;64.70;;;;;;5065501;28;20202;-75
2023/07/24 07:21:14;;;;;;;15.47;8.07;;;22.20;64.80;;;;;;5060025;28;20214;-76
2023/07/24 07:23:40;;;;;;;13.90;7.37;;;22.20;64.80;;;;;;5059954;28;20225;-75
2023/07/24 07:26:06;;;;;;;17.50;8.13;;;22.20;65.00;;;;;;5067309;28;20681;-76
2023/07/24 07:28:31;;;;;;;17.93;8.63;;;22.30;65.10;;;;;;5058442;28;20315;-75
2023/07/24 07:30:57;;;;;;;19.63;7.80;;;22.20;65.30;;;;;;5054475;28;20233;-73
2023/07/24 07:33:23;;;;;;;18.90;8.53;;;22.20;65.30;;;;;;5058977;28;20648;-73
2023/07/24 07:35:50;;;;;;;18.87;8.20;;;22.20;65.40;;;;;;5065081;28;20187;-74
2023/07/24 07:38:15;;;;;;;17.37;7.90;;;22.30;65.40;;;;;;5051670;28;20427;-75
2023/07/24 07:40:41;;;;;;;15.23;8.23;;;22.40;65.30;;;;;;5050993;28;20469;-73
2023/07/24 07:43:07;;;;;;;18.80;9.07;;;22.40;65.30;;;;;;5065814;28;20236;-74
2023/07/24 07:45:33;;;;;;;16.13;8.60;;;22.50;65.30;;;;;;5064822;28;20191;-74
2023/07/24 07:47:58;;;;;;;18.40;8.57;;;22.50;65.30;;;;;;5064592;28;20191;-73
2023/07/24 07:50:24;;;;;;;15.10;8.40;;;22.50;65.10;;;;;;5051670;28;20205;-73
2023/07/24 07:52:51;;;;;;;17.70;8.10;;;22.50;65.10;;;;;;5063089;28;20198;-72
2023/07/24 07:55:20;;;;;;;13.30;7.70;;;22.60;65.30;;;;;;5065976;28;20201;-72
2023/07/24 07:57:46;;;;;;;17.00;8.20;;;22.60;65.30;;;;;;5063454;28;20437;-73
2023/07/24 08:00:12;;;;;;;15.87;8.23;;;22.70;65.30;;;;;;5054609;28;20527;-76
2023/07/24 08:02:40;;;;;;;15.50;7.77;;;22.70;65.40;;;;;;5061732;28;20195;-73
2023/07/24 08:05:10;;;;;;;17.27;8.27;;;22.70;65.60;;;;;;5056347;28;20437;-73
2023/07/24 08:07:36;;;;;;;15.10;7.70;;;22.60;65.60;;;;;;5060299;28;20935;-74
2023/07/24 08:10:02;;;;;;;20.13;8.33;;;22.60;66.10;;;;;;5061959;28;20469;-75
2023/07/24 08:12:28;;;;;;;14.37;7.97;;;22.50;66.40;;;;;;5055719;28;20311;-73
2023/07/24 08:14:53;;;;;;;21.43;8.37;;;22.40;66.70;;;;;;5055677;28;20512;-73
2023/07/24 08:17:19;;;;;;;16.53;8.13;;;22.40;66.70;;;;;;5059952;28;20266;-75
2023/07/24 08:19:45;;;;;;;19.90;9.10;;;22.30;67.20;;;;;;5057357;28;20631;-73
2023/07/24 08:22:11;;;;;;;14.37;7.10;;;22.30;67.00;;;;;;5056691;28;20419;-73
2023/07/24 08:24:36;;;;;;;15.47;7.60;;;22.20;67.60;;;;;;5052463;28;20237;-73
2023/07/24 08:27:02;;;;;;;16.37;8.70;;;22.10;68.00;;;;;;5057082;28;20595;-75
2023/07/24 08:29:28;;;;;;;19.67;9.50;;;21.90;68.30;;;;;;5053501;28;20217;-74
2023/07/24 08:31:54;;;;;;;28.27;9.97;;;21.80;70.10;;;;;;5052599;28;20829;-74
2023/07/24 08:34:19;;;;;;;17.97;8.37;;;21.70;70.80;;;;;;5066548;28;20195;-76
2023/07/24 08:36:45;;;;;;;17.70;8.30;;;21.50;71.70;;;;;;5037936;28;20198;-74
2023/07/24 08:39:11;;;;;;;18.33;9.20;;;21.20;73.00;;;;;;5067238;28;20193;-74
2023/07/24 08:41:37;;;;;;;12.43;7.60;;;21.10;73.50;;;;;;5059655;28;20239;-75
2023/07/24 08:44:06;;;;;;;14.93;7.93;;;21.00;73.90;;;;;;5060402;28;20237;-75
2023/07/24 08:46:36;;;;;;;15.93;8.53;;;21.00;73.70;;;;;;5053062;28;20432;-77
2023/07/24 08:49:02;;;;;;;15.93;8.33;;;21.00;73.50;;;;;;5057883;28;20481;-74
2023/07/24 08:51:29;;;;;;;11.90;6.83;;;21.00;74.60;;;;;;5063876;28;20517;-75
2023/07/24 08:53:56;;;;;;;15.50;6.00;;;20.90;74.90;;;;;;5064678;28;20268;-74
2023/07/24 08:56:22;;;;;;;13.33;6.50;;;20.90;73.70;;;;;;5062601;28;20918;-74
2023/07/24 08:58:48;;;;;;;17.80;7.63;;;20.90;73.70;;;;;;5070206;28;20460;-77
2023/07/24 09:01:13;;;;;;;13.40;7.00;;;21.00;75.10;;;;;;5062292;28;20306;-75
2023/07/24 09:03:39;;;;;;;11.50;7.23;;;21.10;74.90;;;;;;5064229;28;20938;-75
2023/07/24 09:06:07;;;;;;;16.17;7.00;;;21.10;75.10;;;;;;5067186;28;20224;-76
2023/07/24 09:08:35;;;;;;;11.50;6.00;;;21.30;74.50;;;;;;5062030;28;20199;-75
2023/07/24 09:11:02;;;;;;;13.00;6.70;;;21.40;73.30;;;;;;5062164;28;20500;-74
2023/07/24 09:13:29;;;;;;;11.37;6.00;;;21.40;73.00;;;;;;5071782;28;20532;-77
2023/07/24 09:15:55;;;;;;;15.67;7.13;;;21.50;73.00;;;;;;5067932;28;20429;-74
2023/07/24 09:18:21;;;;;;;11.73;6.53;;;21.60;72.40;;;;;;5058511;28;20423;-79
2023/07/24 09:20:47;;;;;;;12.23;6.60;;;21.60;73.00;;;;;;5063977;28;20462;-73
2023/07/24 09:23:13;;;;;;;13.77;6.60;;;21.70;72.70;;;;;;5066747;28;20437;-73
2023/07/24 09:25:40;;;;;;;11.93;6.40;;;21.70;72.00;;;;;;5065878;28;20214;-75
2023/07/24 09:28:13;;;;;;;12.70;7.03;;;21.80;71.70;;;;;;5062700;28;20425;-74
2023/07/24 09:30:40;;;;;;;12.47;7.20;;;21.90;71.60;;;;;;5063894;28;20521;-73
2023/07/24 09:33:06;;;;;;;9.10;5.50;;;22.00;71.70;;;;;;5057327;28;20574;-74
2023/07/24 09:35:32;;;;;;;11.30;6.07;;;22.00;71.10;;;;;;5056447;28;20428;-77
2023/07/24 09:38:05;;;;;;;12.67;6.63;;;22.00;70.80;;;;;;5061559;28;20443;-74
2023/07/24 09:40:39;;;;;;;10.50;6.23;;;22.10;71.30;;;;;;5063654;28;20207;-73
2023/07/24 09:43:24;;;;;;;16.43;5.70;;;22.00;70.50;;;;;;5059337;28;20413;-73
2023/07/24 09:45:51;;;;;;;11.87;4.97;;;21.80;70.50;;;;;;5066841;28;20568;-72
2023/07/24 09:48:19;;;;;;;10.90;5.63;;;21.80;71.00;;;;;;5059174;28;20519;-73
2023/07/24 09:50:47;;;;;;;11.30;6.80;;;21.80;71.10;;;;;;5066074;28;20853;-75
2023/07/24 09:53:37;;;;;;;12.10;6.27;;;21.90;71.40;;;;;;5053877;28;20426;-73
2023/07/24 09:56:08;;;;;;;10.97;6.13;;;22.00;72.00;;;;;;5061402;28;20930;-75
2023/07/24 09:58:35;;;;;;;11.33;6.77;;;22.00;72.30;;;;;;5064286;28;20439;-72
2023/07/24 10:01:06;;;;;;;15.10;7.60;;;22.00;72.70;;;;;;5062290;28;20507;-74
2023/07/24 10:03:34;;;;;;;11.30;6.80;;;22.10;72.10;;;;;;5062921;28;20432;-74
2023/07/24 10:06:01;;;;;;;15.73;7.00;;;21.80;73.30;;;;;;5061498;28;20523;-74
2023/07/24 10:08:27;;;;;;;11.67;6.70;;;21.80;73.50;;;;;;5063793;28;20478;-73
2023/07/24 10:10:53;;;;;;;12.80;6.30;;;22.00;72.90;;;;;;5051791;28;20473;-72
2023/07/24 10:13:20;;;;;;;12.67;6.23;;;22.00;72.90;;;;;;5069018;28;20442;-73
2023/07/24 10:15:47;;;;;;;12.23;6.00;;;22.10;72.60;;;;;;5054452;28;20437;-72
2023/07/24 10:18:17;;;;;;;11.73;6.70;;;22.00;72.40;;;;;;5059715;28;20936;-73
2023/07/24 10:20:43;;;;;;;10.67;6.20;;;22.00;72.90;;;;;;5056267;28;20465;-73
2023/07/24 10:23:10;;;;;;;10.53;6.00;;;22.00;73.00;;;;;;5064839;28;20421;-72
2023/07/24 10:25:43;;;;;;;13.73;6.30;;;21.90;73.50;;;;;;5063664;28;20697;-73
2023/07/24 10:28:12;;;;;;;11.63;5.93;;;21.90;73.60;;;;;;5068827;28;20453;-72
2023/07/24 10:30:38;;;;;;;13.90;6.77;;;21.90;73.60;;;;;;5059320;28;20450;-73
2023/07/24 10:33:11;;;;;;;13.37;6.10;;;21.90;74.00;;;;;;5063729;28;20843;-74
2023/07/24 10:35:50;;;;;;;13.77;6.87;;;21.90;74.20;;;;;;5056711;28;20426;-73
2023/07/24 10:38:17;;;;;;;14.10;6.30;;;21.70;74.60;;;;;;5062283;28;20457;-73
2023/07/24 10:40:45;;;;;;;12.47;6.63;;;21.60;75.90;;;;;;5056962;28;20476;-74
2023/07/24 10:43:12;;;;;;;11.60;6.50;;;21.50;76.70;;;;;;5057881;28;21243;-73
2023/07/24 10:45:52;;;;;;;12.17;7.13;;;21.30;77.40;;;;;;5063201;28;20443;-73
2023/07/24 10:48:19;;;;;;;14.43;6.93;;;21.20;78.40;;;;;;5065941;28;20432;-72
2023/07/24 10:50:50;;;;;;;16.00;7.27;;;20.90;79.50;;;;;;5059577;28;21004;-72
2023/07/24 10:53:19;;;;;;;16.00;6.90;;;20.70;80.60;;;;;;5055852;28;20433;-71
2023/07/24 10:55:47;;;;;;;15.83;7.80;;;20.40;81.90;;;;;;5070775;28;20447;-73
2023/07/24 10:58:13;;;;;;;13.67;7.00;;;20.20;82.80;;;;;;5055300;28;20435;-74
2023/07/24 11:00:43;;;;;;;16.63;8.27;;;20.00;83.80;;;;;;5052638;28;21007;-73
2023/07/24 11:03:13;;;;;;;16.70;8.20;;;19.80;84.70;;;;;;5058812;28;20437;-73
2023/07/24 11:05:42;;;;;;;15.47;8.17;;;19.70;85.20;;;;;;5063377;28;20924;-76
2023/07/24 11:08:15;;;;;;;15.63;7.63;;;19.60;86.00;;;;;;5055921;28;20433;-75
2023/07/24 11:10:49;;;;;;;14.70;7.23;;;19.40;86.80;;;;;;5045308;28;20473;-75
2023/07/24 11:13:17;;;;;;;10.50;6.70;;;19.30;87.30;;;;;;5058085;28;20641;-74
2023/07/24 11:15:43;;;;;;;13.80;7.07;;;19.10;87.00;;;;;;5061362;28;20481;-73
2023/07/24 11:18:10;;;;;;;20.13;7.77;;;19.00;87.40;;;;;;5066442;28;20823;-73
2023/07/24 11:20:48;;;;;;;13.70;6.80;;;18.90;87.60;;;;;;5061460;28;20500;-71
2023/07/24 11:23:14;;;;;;;13.07;7.13;;;18.80;87.00;;;;;;5056739;28;20426;-73
2023/07/24 11:25:40;;;;;;;13.10;7.13;;;18.80;87.10;;;;;;5059684;28;20448;-72
2023/07/24 11:28:08;;;;;;;14.23;7.20;;;18.80;87.00;;;;;;5058252;28;20415;-74
2023/07/24 11:30:34;;;;;;;11.83;6.60;;;18.80;87.10;;;;;;5053714;28;20477;-72
2023/07/24 11:33:02;;;;;;;12.93;7.30;;;18.80;87.10;;;;;;5062279;28;20815;-74
2023/07/24 11:35:27;;;;;;;15.60;7.60;;;18.80;87.30;;;;;;5064450;28;20585;-73
2023/07/24 11:37:53;;;;;;;14.13;7.97;;;18.90;87.70;;;;;;5056880;28;20870;-72
2023/07/24 11:40:20;;;;;;;14.90;7.77;;;19.10;88.60;;;;;;5056898;28;20473;-72
2023/07/24 11:42:48;;;;;;;14.10;7.70;;;19.30;89.00;;;;;;5060550;28;20189;-73
2023/07/24 11:45:14;;;;;;;13.00;7.30;;;19.60;89.20;;;;;;5058420;28;20535;-71
2023/07/24 11:47:47;;;;;;;13.30;7.17;;;20.00;88.60;;;;;;5061515;28;20436;-72
2023/07/24 11:50:14;;;;;;;13.70;7.77;;;20.60;87.40;;;;;;5057090;28;20816;-73
2023/07/24 11:52:45;;;;;;;14.13;8.17;;;21.10;83.80;;;;;;5059304;28;20481;-73
2023/07/24 11:55:12;;;;;;;12.90;6.43;;;21.40;80.50;;;;;;5054223;28;20443;-77
2023/07/24 11:57:39;;;;;;;13.20;7.70;;;21.20;80.30;;;;;;5061762;28;20523;-74
2023/07/24 12:00:06;;;;;;;12.87;7.10;;;21.00;79.60;;;;;;5057320;28;20999;-74
2023/07/24 12:02:34;;;;;;;14.23;6.43;;;20.80;79.60;;;;;;5061337;28;20429;-74
2023/07/24 12:05:00;;;;;;;14.80;7.30;;;20.60;80.30;;;;;;5064618;28;20448;-74
2023/07/24 12:07:31;;;;;;;12.63;6.53;;;20.40;81.20;;;;;;5060515;28;20533;-76
2023/07/24 12:09:57;;;;;;;11.67;7.13;;;20.40;81.80;;;;;;5063141;28;20213;-73
2023/07/24 12:12:22;;;;;;;13.30;7.60;;;20.30;81.80;;;;;;5062849;28;20489;-75
2023/07/24 12:14:48;;;;;;;12.80;6.50;;;20.30;82.40;;;;;;5060025;28;20185;-74
2023/07/24 12:17:18;;;;;;;12.40;6.27;;;20.30;82.80;;;;;;5060053;28;20194;-74
2023/07/24 12:19:44;;;;;;;11.80;6.97;;;20.30;82.70;;;;;;5052294;28;20196;-75
2023/07/24 12:22:09;;;;;;;14.47;7.17;;;20.40;82.70;;;;;;5057837;28;21319;-76
2023/07/24 12:24:35;;;;;;;13.37;7.00;;;20.50;82.80;;;;;;5059358;28;20209;-74
2023/07/24 12:27:01;;;;;;;11.07;6.43;;;20.50;82.20;;;;;;5068113;28;20193;-78
2023/07/24 12:29:26;;;;;;;10.97;6.00;;;20.70;81.80;;;;;;5055205;28;20206;-76
2023/07/24 12:31:52;;;;;;;13.00;6.70;;;20.80;81.70;;;;;;5053088;28;20592;-75